createdAt,value
2022-08-12T00:00:25.655Z,20.14
2022-08-12T00:03:47.007Z,20.05
2022-08-12T00:07:08.533Z,19.99
2022-08-12T00:10:28.965Z,19.97
2022-08-12T00:13:49.228Z,19.91
2022-08-12T00:17:10.442Z,19.85
2022-08-12T00:20:32.240Z,19.80
2022-08-12T00:23:53.182Z,19.80
2022-08-12T00:27:14.707Z,19.80
2022-08-12T00:30:35.462Z,19.82
2022-08-12T00:33:55.866Z,19.80
2022-08-12T00:37:20.920Z,19.80
2022-08-12T00:40:44.342Z,19.74
2022-08-12T00:43:49.151Z,19.72
2022-08-12T00:46:54.159Z,19.67
2022-08-12T00:49:58.379Z,19.58
2022-08-12T00:53:03.665Z,19.57
2022-08-12T00:56:08.012Z,19.48
2022-08-12T00:59:11.794Z,19.46
2022-08-12T01:02:23.274Z,19.47
2022-08-12T01:05:45.423Z,19.47
2022-08-12T01:09:21.851Z,19.38
2022-08-12T01:12:25.773Z,19.43
2022-08-12T01:15:28.780Z,19.41
2022-08-12T01:18:33.867Z,19.45
2022-08-12T01:22:04.249Z,19.41
2022-08-12T01:25:12.472Z,19.38
2022-08-12T01:28:20.551Z,19.36
2022-08-12T01:31:23.958Z,19.31
2022-08-12T01:34:36.122Z,19.29
2022-08-12T01:37:47.799Z,19.28
2022-08-12T01:40:53.865Z,19.24
2022-08-12T01:44:01.022Z,19.25
2022-08-12T01:47:11.478Z,19.15
2022-08-12T01:50:22.159Z,19.16
2022-08-12T01:53:31.710Z,19.10
2022-08-12T01:57:11.611Z,19.13
2022-08-12T02:00:16.181Z,19.07
2022-08-12T02:03:54.089Z,19.01
2022-08-12T02:07:21.257Z,18.91
2022-08-12T02:10:52.048Z,18.88
2022-08-12T02:14:19.553Z,18.80
2022-08-12T02:17:54.812Z,18.75
2022-08-12T02:21:06.037Z,18.65
2022-08-12T02:24:14.283Z,18.64
2022-08-12T02:27:20.241Z,18.64
2022-08-12T02:30:41.512Z,18.57
2022-08-12T02:33:47.565Z,18.53
2022-08-12T02:36:50.585Z,18.46
2022-08-12T02:39:57.964Z,18.40
2022-08-12T02:43:04.298Z,18.30
2022-08-12T02:46:14.443Z,18.27
2022-08-12T02:49:23.733Z,18.21
2022-08-12T02:52:28.361Z,18.21
2022-08-12T02:55:35.267Z,18.21
2022-08-12T02:58:41.376Z,18.19
2022-08-12T03:01:48.715Z,18.20
2022-08-12T03:04:56.590Z,18.20
2022-08-12T03:08:04.360Z,18.15
2022-08-12T03:11:16.965Z,18.13
2022-08-12T03:14:22.789Z,18.13
2022-08-12T03:17:31.853Z,18.07
2022-08-12T03:20:38.075Z,18.01
2022-08-12T03:23:42.935Z,18.06
2022-08-12T03:26:48.360Z,17.98
2022-08-12T03:29:56.690Z,17.89
2022-08-12T03:33:02.773Z,17.75
2022-08-12T03:36:08.017Z,17.76
2022-08-12T03:39:38.165Z,17.71
2022-08-12T03:43:00.179Z,17.73
2022-08-12T03:46:26.910Z,17.67
2022-08-12T03:49:48.937Z,17.59
2022-08-12T03:53:09.342Z,17.58
2022-08-12T03:56:29.385Z,17.47
2022-08-12T03:59:49.527Z,17.46
2022-08-12T04:02:59.020Z,17.50
2022-08-12T04:06:03.074Z,17.52
2022-08-12T04:09:16.192Z,17.53
2022-08-12T04:12:37.026Z,17.48
2022-08-12T04:15:41.082Z,17.50
2022-08-12T04:18:45.182Z,17.45
2022-08-12T04:22:01.357Z,17.46
2022-08-12T04:25:06.260Z,17.33
2022-08-12T04:28:13.710Z,17.30
2022-08-12T04:31:16.685Z,17.31
2022-08-12T04:34:19.700Z,17.22
2022-08-12T04:37:24.161Z,17.27
2022-08-12T04:40:29.713Z,17.19
2022-08-12T04:43:55.289Z,17.25
2022-08-12T04:46:55.928Z,17.29
2022-08-12T04:49:58.629Z,17.31
2022-08-12T04:53:04.226Z,17.35
2022-08-12T04:56:07.423Z,17.37
2022-08-12T04:59:10.344Z,17.33
2022-08-12T05:02:17.007Z,17.36
2022-08-12T05:05:26.258Z,17.39
2022-08-12T05:08:30.801Z,17.44
2022-08-12T05:11:33.604Z,17.43
2022-08-12T05:14:37.666Z,17.53
2022-08-12T05:17:41.521Z,17.64
2022-08-12T05:20:45.185Z,17.73
2022-08-12T05:23:49.449Z,17.79
2022-08-12T05:26:53.017Z,17.85
2022-08-12T05:30:06.371Z,17.95
2022-08-12T05:33:13.328Z,18.03
2022-08-12T05:36:20.041Z,18.11
2022-08-12T05:39:24.201Z,18.27
2022-08-12T05:42:31.099Z,18.36
2022-08-12T05:45:42.862Z,18.43
2022-08-12T05:48:49.342Z,18.54
2022-08-12T05:51:52.091Z,18.69
2022-08-12T05:54:57.838Z,18.95
2022-08-12T05:58:02.877Z,19.22
2022-08-12T06:02:12.762Z,19.47
2022-08-12T06:04:29.442Z,19.64
2022-08-12T06:08:00.630Z,19.86
2022-08-12T06:10:58.658Z,20.02
2022-08-12T06:14:01.365Z,20.14
2022-08-12T06:17:14.658Z,20.36
2022-08-12T06:20:26.481Z,20.60
2022-08-12T06:23:32.610Z,20.80
2022-08-12T06:26:37.177Z,21.03
2022-08-12T06:30:08.104Z,21.31
2022-08-12T06:33:21.152Z,21.68
2022-08-12T06:36:29.451Z,22.21
2022-08-12T06:39:35.619Z,22.83
2022-08-12T06:42:49.376Z,23.39
2022-08-12T06:45:52.117Z,23.81
2022-08-12T06:48:58.908Z,24.18
2022-08-12T06:52:02.071Z,24.33
2022-08-12T06:55:05.295Z,24.36
2022-08-12T06:58:11.611Z,24.29
2022-08-12T07:01:15.191Z,24.24
2022-08-12T07:07:42.161Z,24.12
2022-08-12T07:10:59.021Z,24.10
2022-08-12T07:14:12.676Z,24.27
2022-08-12T07:17:16.235Z,24.49
2022-08-12T07:20:42.656Z,24.71
2022-08-12T07:23:42.613Z,24.91
2022-08-12T07:26:45.375Z,25.24
2022-08-12T07:30:02.828Z,25.47
2022-08-12T07:33:09.526Z,25.53
2022-08-12T07:36:15.191Z,25.55
2022-08-12T07:39:18.267Z,25.69
2022-08-12T07:42:21.511Z,25.73
2022-08-12T07:45:25.759Z,26.07
2022-08-12T07:48:28.519Z,26.23
2022-08-12T07:51:31.700Z,26.41
2022-08-12T07:54:34.495Z,26.60
2022-08-12T07:57:49.122Z,26.67
2022-08-12T08:00:55.055Z,26.72
2022-08-12T08:04:19.155Z,26.75
2022-08-12T08:07:23.086Z,26.90
2022-08-12T08:10:26.388Z,27.01
2022-08-12T08:13:28.161Z,26.93
2022-08-12T08:16:33.609Z,26.86
2022-08-12T08:20:02.850Z,26.94
2022-08-12T08:22:59.959Z,27.09
2022-08-12T08:26:02.768Z,27.37
2022-08-12T08:29:05.522Z,27.59
2022-08-12T08:32:11.401Z,27.53
2022-08-12T08:35:14.694Z,27.61
2022-08-12T08:38:33.242Z,27.71
2022-08-12T08:42:17.156Z,27.75
2022-08-12T08:45:19.167Z,27.78
2022-08-12T08:48:24.138Z,28.00
2022-08-12T08:51:26.939Z,28.20
2022-08-12T08:54:33.425Z,28.43
2022-08-12T08:57:43.918Z,28.56
2022-08-12T09:00:49.780Z,28.70
2022-08-12T09:04:21.322Z,28.76
2022-08-12T09:07:43.934Z,28.67
2022-08-12T09:10:45.122Z,28.60
2022-08-12T09:14:11.168Z,28.63
2022-08-12T09:17:10.530Z,28.81
2022-08-12T09:20:17.831Z,28.99
2022-08-12T09:24:00.370Z,29.16
2022-08-12T09:26:46.578Z,29.39
2022-08-12T09:30:10.377Z,29.62
2022-08-12T09:33:18.471Z,29.54
2022-08-12T09:36:30.940Z,29.60
2022-08-12T09:40:06.322Z,29.72
2022-08-12T09:43:17.632Z,29.67
2022-08-12T09:46:25.491Z,29.64
2022-08-12T09:49:28.526Z,29.59
2022-08-12T09:52:33.210Z,29.75
2022-08-12T09:56:03.779Z,29.66
2022-08-12T09:59:02.908Z,29.87
2022-08-12T10:02:44.299Z,29.77
2022-08-12T10:06:26.216Z,29.73
2022-08-12T10:08:57.582Z,29.90
2022-08-12T10:12:31.097Z,29.81
2022-08-12T10:16:02.743Z,29.70
2022-08-12T10:19:01.531Z,29.82
2022-08-12T10:22:06.232Z,29.74
2022-08-12T10:26:34.135Z,29.72
2022-08-12T10:30:37.236Z,29.95
2022-08-12T10:32:56.699Z,30.22
2022-08-12T10:36:00.300Z,30.32
2022-08-12T10:39:03.582Z,30.31
2022-08-12T10:42:46.241Z,30.35
2022-08-12T10:45:54.154Z,30.49
2022-08-12T10:49:06.244Z,30.62
2022-08-12T10:52:33.864Z,30.75
2022-08-12T10:55:40.260Z,30.72
2022-08-12T10:58:46.320Z,30.76
2022-08-12T11:04:32.098Z,30.76
2022-08-12T11:07:06.816Z,31.00
2022-08-12T11:08:42.360Z,31.13
2022-08-12T11:12:37.020Z,30.94
2022-08-12T11:15:18.895Z,30.65
2022-08-12T11:18:24.759Z,30.58
2022-08-12T11:21:39.604Z,30.40
2022-08-12T11:24:51.702Z,30.57
2022-08-12T11:27:56.561Z,30.72
2022-08-12T11:31:01.482Z,30.89
2022-08-12T11:34:51.855Z,30.94
2022-08-12T11:37:27.216Z,30.78
2022-08-12T11:40:30.634Z,30.74
2022-08-12T11:43:50.137Z,30.77
2022-08-12T11:46:58.975Z,30.99
2022-08-12T11:50:01.830Z,31.11
2022-08-12T11:53:04.680Z,30.99
2022-08-12T11:56:38.574Z,30.99
2022-08-12T12:01:57.946Z,31.27
2022-08-12T12:03:06.242Z,31.55
2022-08-12T12:06:09.158Z,31.75
2022-08-12T12:09:11.968Z,31.94
2022-08-12T12:12:15.040Z,32.10
2022-08-12T12:15:24.944Z,31.75
2022-08-12T12:18:42.619Z,31.88
2022-08-12T12:21:48.080Z,32.04
2022-08-12T12:24:52.289Z,31.58
2022-08-12T12:28:05.992Z,31.60
2022-08-12T12:31:15.119Z,31.62
2022-08-12T12:34:33.953Z,32.03
2022-08-12T12:38:05.589Z,31.98
2022-08-12T12:41:16.307Z,31.45
2022-08-12T12:44:26.001Z,30.69
2022-08-12T12:48:02.486Z,30.31
2022-08-12T12:51:49.136Z,29.90
2022-08-12T12:54:52.516Z,30.22
2022-08-12T12:58:00.266Z,30.72
2022-08-12T13:01:04.790Z,30.95
2022-08-12T13:04:31.804Z,31.03
2022-08-12T13:07:54.746Z,31.08
2022-08-12T13:11:00.430Z,30.98
2022-08-12T13:14:07.231Z,30.39
2022-08-12T13:17:17.501Z,30.36
2022-08-12T13:20:38.222Z,30.38
2022-08-12T13:24:09.810Z,30.06
2022-08-12T13:27:13.347Z,30.26
2022-08-12T13:30:20.508Z,30.83
2022-08-12T13:33:28.659Z,31.32
2022-08-12T13:36:31.598Z,31.40
2022-08-12T13:39:35.770Z,31.47
2022-08-12T13:42:41.265Z,31.23
2022-08-12T13:45:48.723Z,30.83
2022-08-12T13:48:54.223Z,31.01
2022-08-12T13:51:57.727Z,31.28
2022-08-12T13:55:06.333Z,31.63
2022-08-12T13:58:12.612Z,31.98
2022-08-12T14:01:15.802Z,32.13
2022-08-12T14:04:19.504Z,31.49
2022-08-12T14:07:23.015Z,30.88
2022-08-12T14:10:38.903Z,30.39
2022-08-12T14:14:05.272Z,29.77
2022-08-12T14:17:19.810Z,29.40
2022-08-12T14:20:23.279Z,29.21
2022-08-12T14:24:05.335Z,29.40
2022-08-12T14:26:57.453Z,30.11
2022-08-12T14:30:17.092Z,30.83
2022-08-12T14:33:29.597Z,31.15
2022-08-12T14:36:46.874Z,31.19
2022-08-12T14:39:51.022Z,31.29
2022-08-12T14:42:55.202Z,30.67
2022-08-12T14:46:00.471Z,30.19
2022-08-12T14:50:01.720Z,30.18
2022-08-12T14:53:11.426Z,30.68
2022-08-12T14:59:57.045Z,31.32
2022-08-12T15:02:54.186Z,30.74
2022-08-12T15:06:06.607Z,30.27
2022-08-12T15:09:29.057Z,29.78
2022-08-12T15:12:34.447Z,29.78
2022-08-12T15:15:44.126Z,29.72
2022-08-12T15:18:55.061Z,30.08
2022-08-12T15:22:37.331Z,30.53
2022-08-12T15:25:22.058Z,30.62
2022-08-12T15:28:26.264Z,30.68
2022-08-12T15:31:59.210Z,30.51
2022-08-12T15:34:53.795Z,30.38
2022-08-12T15:38:09.276Z,30.19
2022-08-12T15:41:16.110Z,30.34
2022-08-12T15:44:38.828Z,30.48
2022-08-12T15:47:49.839Z,30.59
2022-08-12T15:50:55.153Z,30.57
2022-08-12T15:54:34.114Z,30.62
2022-08-12T15:57:38.404Z,30.76
2022-08-12T16:00:42.619Z,30.62
2022-08-12T16:04:00.782Z,30.27
2022-08-12T16:07:06.123Z,29.98
2022-08-12T16:10:12.282Z,29.83
2022-08-12T16:13:32.729Z,29.84
2022-08-12T16:16:38.148Z,30.00
2022-08-12T16:20:02.947Z,30.16
2022-08-12T16:23:26.401Z,29.83
2022-08-12T16:26:35.037Z,29.51
2022-08-12T16:29:52.608Z,29.18
2022-08-12T16:32:57.154Z,29.07
2022-08-12T16:36:02.028Z,29.02
2022-08-12T16:39:05.001Z,29.01
2022-08-12T16:42:07.722Z,28.97
2022-08-12T16:45:14.069Z,28.92
2022-08-12T16:48:34.947Z,28.89
2022-08-12T16:51:45.877Z,28.84
2022-08-12T16:54:49.852Z,28.77
2022-08-12T16:57:54.116Z,28.68
2022-08-12T17:01:01.963Z,28.44
2022-08-12T17:04:09.026Z,28.30
2022-08-12T17:07:17.002Z,28.17
2022-08-12T17:10:36.874Z,28.16
2022-08-12T17:13:42.853Z,28.00
2022-08-12T17:16:57.016Z,27.87
2022-08-12T17:20:34.620Z,27.73
2022-08-12T17:23:47.982Z,27.58
2022-08-12T17:26:56.084Z,27.46
2022-08-12T17:30:03.763Z,27.38
2022-08-12T17:33:08.309Z,27.28
2022-08-12T17:36:11.264Z,27.25
2022-08-12T17:39:15.760Z,27.18
2022-08-12T17:42:32.656Z,27.14
2022-08-12T17:45:39.216Z,27.05
2022-08-12T17:48:55.510Z,26.95
2022-08-12T17:52:02.784Z,26.89
2022-08-12T17:55:40.489Z,26.87
2022-08-12T17:58:37.847Z,26.78
2022-08-12T18:01:45.086Z,26.79
2022-08-12T18:05:04.570Z,26.77
2022-08-12T18:08:11.043Z,26.75
2022-08-12T18:12:06.471Z,26.70
2022-08-12T18:14:58.508Z,26.60
2022-08-12T18:18:02.929Z,26.46
2022-08-12T18:21:08.489Z,26.37
2022-08-12T18:24:19.825Z,26.29
2022-08-12T18:27:47.222Z,26.24
2022-08-12T18:30:52.225Z,26.16
2022-08-12T18:33:55.450Z,26.08
2022-08-12T18:37:27.036Z,26.02
2022-08-12T18:40:46.020Z,25.93
2022-08-12T18:43:59.727Z,25.84
2022-08-12T18:47:06.392Z,25.74
2022-08-12T18:50:15.030Z,25.60
2022-08-12T18:54:06.977Z,25.49
2022-08-12T18:56:45.410Z,25.36
2022-08-12T18:59:59.817Z,25.28
2022-08-12T19:03:06.256Z,25.15
2022-08-12T19:06:28.695Z,25.07
2022-08-12T19:09:57.771Z,24.93
2022-08-12T19:13:24.161Z,24.78
2022-08-12T19:16:29.371Z,24.65
2022-08-12T19:19:41.621Z,24.54
2022-08-12T19:22:45.159Z,24.43
2022-08-12T19:26:05.079Z,24.27
2022-08-12T19:29:08.671Z,24.14
2022-08-12T19:32:14.681Z,24.00
2022-08-12T19:36:08.277Z,23.89
2022-08-12T19:38:52.287Z,23.92
2022-08-12T19:42:01.748Z,24.08
2022-08-12T19:45:05.775Z,24.22
2022-08-12T19:48:19.032Z,24.25
2022-08-12T19:51:33.449Z,24.32
2022-08-12T19:54:43.971Z,24.33
2022-08-12T19:58:01.357Z,24.37
2022-08-12T20:01:11.327Z,24.34
2022-08-12T20:04:15.757Z,24.37
2022-08-12T20:07:23.842Z,24.35
2022-08-12T20:10:35.356Z,24.32
2022-08-12T20:13:42.128Z,24.27
2022-08-12T20:16:51.926Z,24.22
2022-08-12T20:20:16.925Z,24.13
2022-08-12T20:23:37.245Z,23.90
2022-08-12T20:26:55.572Z,23.69
2022-08-12T20:29:59.543Z,23.54
2022-08-12T20:33:03.293Z,23.41
2022-08-12T20:36:40.204Z,23.24
2022-08-12T20:39:51.984Z,23.06
2022-08-12T20:42:57.743Z,22.88
2022-08-12T20:46:00.652Z,22.77
2022-08-12T20:49:17.273Z,22.64
2022-08-12T20:52:22.727Z,22.53
2022-08-12T20:55:42.440Z,22.47
2022-08-12T20:58:46.591Z,22.31
2022-08-12T21:01:53.959Z,22.16
2022-08-12T21:05:19.845Z,22.08
2022-08-12T21:08:26.481Z,21.99
2022-08-12T21:11:30.389Z,21.89
2022-08-12T21:14:53.234Z,21.85
2022-08-12T21:18:09.729Z,21.81
2022-08-12T21:21:40.342Z,21.78
2022-08-12T21:24:48.089Z,21.74
2022-08-12T21:27:59.299Z,21.69
2022-08-12T21:32:34.533Z,21.61
2022-08-12T21:34:29.511Z,21.51
2022-08-12T21:37:37.109Z,21.52
2022-08-12T21:40:51.620Z,21.41
2022-08-12T21:44:00.897Z,21.45
2022-08-12T21:47:12.055Z,21.45
2022-08-12T21:50:28.989Z,21.47
2022-08-12T21:54:07.994Z,21.43
2022-08-12T21:56:56.403Z,21.36
2022-08-12T21:59:59.139Z,21.35
2022-08-12T22:04:01.961Z,21.32
2022-08-12T22:06:53.591Z,21.26
2022-08-12T22:09:57.076Z,21.27
2022-08-12T22:13:01.875Z,21.22
2022-08-12T22:16:05.314Z,21.22
2022-08-12T22:19:07.989Z,21.19
2022-08-12T22:22:12.394Z,21.17
2022-08-12T22:25:17.204Z,21.12
2022-08-12T22:28:41.869Z,20.99
2022-08-12T22:31:44.685Z,20.90
2022-08-12T22:35:09.092Z,20.84
2022-08-12T22:38:14.374Z,20.84
2022-08-12T22:41:38.470Z,20.76
2022-08-12T22:45:03.963Z,20.68
2022-08-12T22:48:07.058Z,20.67
2022-08-12T22:51:10.654Z,20.71
2022-08-12T22:54:36.291Z,20.84
2022-08-12T22:57:49.308Z,20.97
2022-08-12T23:00:58.941Z,21.16
2022-08-12T23:04:15.350Z,21.32
2022-08-12T23:07:36.247Z,21.43
2022-08-12T23:10:53.606Z,21.55
2022-08-12T23:14:01.639Z,21.60
2022-08-12T23:17:07.624Z,21.66
2022-08-12T23:20:31.811Z,21.56
2022-08-12T23:23:37.358Z,21.49
2022-08-12T23:27:16.016Z,21.46
2022-08-12T23:30:32.021Z,21.42
2022-08-12T23:33:59.921Z,21.39
2022-08-12T23:37:02.340Z,21.21
2022-08-12T23:40:14.994Z,21.08
2022-08-12T23:43:19.615Z,20.89
2022-08-12T23:46:25.706Z,20.81
2022-08-12T23:49:56.265Z,20.68
2022-08-12T23:52:54.479Z,20.58
2022-08-12T23:55:59.215Z,20.56
2022-08-12T23:59:02.757Z,20.50
